Time;durP1;ratioP1;P1;durP2;ratioP2;P2;SDS_P1;SDS_P2;PMS_P1;PMS_P2;Temp;Humidity;BMP_temperature;BMP_pressure;BME280_temperature;BME280_humidity;BME280_pressure;Samples;Min_cycle;Max_cycle;Signal;HPM_P1;HPM_P2
2023/12/22 00:01:41;;;;;;;3.27;0.80;;;;;;;4.52;100.00;100232.66;4937804;29;20037;-90
2023/12/22 00:04:06;;;;;;;9.13;1.10;;;;;;;4.52;100.00;100235.22;4938972;29;20302;-89
2023/12/22 00:06:32;;;;;;;9.03;1.00;;;;;;;4.40;100.00;100234.50;4934058;29;20513;-90
2023/12/22 00:08:58;;;;;;;8.87;0.90;;;;;;;4.40;100.00;100229.34;4932285;29;20037;-89
2023/12/22 00:11:23;;;;;;;5.50;1.10;;;;;;;4.38;100.00;100225.91;4932542;29;20059;-88
2023/12/22 00:13:51;;;;;;;4.70;0.93;;;;;;;4.34;100.00;100221.66;4948222;28;20114;-94
2023/12/22 00:16:16;;;;;;;8.93;1.00;;;;;;;4.33;100.00;100199.34;4938487;29;20137;-89
2023/12/22 00:18:42;;;;;;;8.67;1.20;;;;;;;4.31;100.00;100213.97;4934645;29;20178;-90
2023/12/22 00:21:11;;;;;;;7.73;1.23;;;;;;;4.28;100.00;100226.03;4939282;29;20039;-92
2023/12/22 00:23:37;;;;;;;4.20;0.90;;;;;;;4.23;100.00;100220.94;4933505;29;20023;-92
2023/12/22 00:26:03;;;;;;;6.77;0.80;;;;;;;4.25;100.00;100239.78;4947626;29;20498;-90
2023/12/22 00:28:29;;;;;;;6.73;1.50;;;;;;;4.21;100.00;100227.81;4943436;29;20023;-91
2023/12/22 00:30:55;;;;;;;7.67;0.83;;;;;;;4.22;100.00;100242.38;4940763;29;20031;-92
2023/12/22 00:33:20;;;;;;;5.13;1.00;;;;;;;4.26;100.00;100246.66;4948752;29;20347;-90
2023/12/22 00:35:46;;;;;;;5.60;1.00;;;;;;;4.25;100.00;100256.09;4948960;29;20567;-90
2023/12/22 00:38:11;;;;;;;8.30;1.30;;;;;;;4.34;100.00;100278.31;4935128;29;20035;-91
2023/12/22 00:40:36;;;;;;;6.80;1.00;;;;;;;4.35;100.00;100272.31;4949795;29;20575;-89
2023/12/22 00:43:02;;;;;;;5.63;0.90;;;;;;;4.39;100.00;100276.56;4936807;29;20031;-91
2023/12/22 00:45:27;;;;;;;5.30;0.97;;;;;;;4.43;100.00;100240.47;4934801;29;20113;-89
2023/12/22 00:47:53;;;;;;;9.63;1.10;;;;;;;4.44;100.00;100257.66;4948729;29;20503;-90
2023/12/22 00:50:18;;;;;;;6.50;1.10;;;;;;;4.48;100.00;100230.97;4935394;29;20617;-90
2023/12/22 00:52:44;;;;;;;5.57;1.00;;;;;;;4.45;100.00;100244.75;4945264;29;20074;-92
2023/12/22 00:55:09;;;;;;;8.47;1.40;;;;;;;4.54;100.00;100259.25;4947771;29;20038;-90
2023/12/22 00:57:37;;;;;;;7.63;1.37;;;;;;;4.53;100.00;100231.78;4938160;29;20106;-92
2023/12/22 01:00:04;;;;;;;8.27;1.20;;;;;;;4.52;100.00;100227.50;4935481;28;20035;-91
2023/12/22 01:02:30;;;;;;;7.50;0.90;;;;;;;4.51;100.00;100241.25;4939504;29;20031;-90
2023/12/22 01:04:55;;;;;;;6.33;1.00;;;;;;;4.52;100.00;100237.81;4939524;29;20031;-91
2023/12/22 01:07:21;;;;;;;9.00;1.20;;;;;;;4.48;100.00;100238.69;4937469;29;20019;-92
2023/12/22 01:09:46;;;;;;;9.93;1.20;;;;;;;4.48;100.00;100230.97;4939107;29;20027;-91
2023/12/22 01:12:11;;;;;;;8.40;1.03;;;;;;;4.45;100.00;100236.16;4949162;29;20485;-91
2023/12/22 01:20:36;;;;;;;8.63;1.43;;;;;;;4.40;100.00;100229.34;4964129;28;20053;-93
2023/12/22 01:23:07;;;;;;;8.03;1.77;;;;;;;4.43;100.00;100232.75;4941631;28;20023;-94
2023/12/22 01:25:36;;;;;;;9.23;1.50;;;;;;;4.44;100.00;100239.63;4958804;28;20110;-94
2023/12/22 01:28:07;;;;;;;8.50;1.37;;;;;;;4.53;100.00;100298.75;4957829;28;20047;-93
2023/12/22 01:30:41;;;;;;;8.93;1.20;;;;;;;4.62;100.00;100278.03;4942349;28;20027;-95
2023/12/22 01:33:06;;;;;;;8.37;1.47;;;;;;;4.80;100.00;100273.56;4938851;28;20412;-92
2023/12/22 01:35:44;;;;;;;12.87;1.40;;;;;;;4.82;100.00;100300.16;4959534;28;20073;-93
2023/12/22 01:38:09;;;;;;;13.30;1.40;;;;;;;4.82;100.00;100292.44;4953401;28;20050;-92
2023/12/22 01:40:36;;;;;;;8.83;1.43;;;;;;;4.82;100.00;100261.50;4933818;28;20373;-90
2023/12/22 01:43:04;;;;;;;10.47;1.57;;;;;;;4.79;100.00;100272.72;4941557;28;20027;-93
2023/12/22 01:45:29;;;;;;;8.17;1.37;;;;;;;4.81;100.00;100264.97;4934681;28;20041;-92
2023/12/22 01:48:27;;;;;;;11.00;1.67;;;;;;;4.81;100.00;100267.53;4939181;28;20023;-91
2023/12/22 01:51:13;;;;;;;9.50;2.30;;;;;;;4.76;100.00;100262.44;4945257;28;20023;-90
2023/12/22 01:53:39;;;;;;;12.47;1.40;;;;;;;4.81;100.00;100260.69;4934497;28;20114;-91
2023/12/22 01:56:38;;;;;;;14.57;1.80;;;;;;;4.83;100.00;100271.81;4941578;28;20106;-93
2023/12/22 02:05:58;;;;;;;9.30;1.70;;;;;;;4.95;100.00;100280.28;5039890;23;20523;-93
2023/12/22 02:08:28;;;;;;;9.33;1.50;;;;;;;4.96;100.00;100271.66;4934516;29;20047;-92
2023/12/22 02:10:56;;;;;;;7.87;1.70;;;;;;;4.93;100.00;100274.28;4948574;28;20117;-93
2023/12/22 02:14:03;;;;;;;10.30;1.80;;;;;;;4.95;100.00;100278.53;4943235;29;20035;-93
2023/12/22 02:20:15;;;;;;;9.53;1.67;;;;;;;4.98;100.00;100299.13;4923600;29;20039;-93
2023/12/22 02:26:13;;;;;;;11.80;1.50;;;;;;;5.08;100.00;100288.72;4920947;29;20043;-91
2023/12/22 02:35:14;;;;;;;9.88;1.30;;;;;;;5.27;100.00;100274.75;4954724;28;20058;-90
2023/12/22 02:38:32;;;;;;;;;;;;;;;;;;;;;
2023/12/22 02:41:01;;;;;;;10.73;1.60;;;;;;;5.36;98.94;100275.47;4953671;29;20505;-92
2023/12/22 02:46:29;;;;;;;11.20;2.05;;;;;;;5.45;95.73;100267.63;4923277;29;20035;-94
2023/12/22 02:48:54;;;;;;;13.43;1.63;;;;;;;5.46;96.41;100277.06;4923627;29;20713;-94
2023/12/22 02:51:20;;;;;;;10.73;1.60;;;;;;;5.46;96.72;100259.00;4920923;29;20279;-92
2023/12/22 02:53:48;;;;;;;7.82;1.30;;;;;;;5.45;94.49;100252.97;4920096;29;20036;-94
2023/12/22 02:56:13;;;;;;;10.20;1.30;;;;;;;5.53;94.36;100262.34;4920844;29;20036;-93
2023/12/22 02:58:39;;;;;;;7.73;1.27;;;;;;;5.53;94.60;100270.94;4920727;29;20054;-93
2023/12/22 03:01:04;;;;;;;7.82;1.17;;;;;;;5.58;92.97;100258.81;4906660;29;20126;-92
2023/12/22 03:03:29;;;;;;;6.22;1.20;;;;;;;5.59;92.37;100270.84;4923373;29;20039;-95
2023/12/22 03:05:55;;;;;;;7.45;1.30;;;;;;;5.58;92.68;100264.00;4898996;29;20116;-93
2023/12/22 03:08:20;;;;;;;8.23;1.33;;;;;;;5.61;93.46;100279.44;4888769;29;20539;-92
2023/12/22 03:10:45;;;;;;;6.88;1.42;;;;;;;5.62;93.30;100255.34;4914756;29;20032;-92
2023/12/22 03:13:11;;;;;;;11.50;1.42;;;;;;;5.62;93.33;100233.81;4891730;29;20047;-94
2023/12/22 03:15:36;;;;;;;9.77;1.33;;;;;;;5.60;93.57;100254.50;4925227;29;20039;-94
2023/12/22 03:18:02;;;;;;;9.35;1.38;;;;;;;5.62;94.75;100245.00;4927982;29;20042;-93
2023/12/22 03:20:27;;;;;;;10.48;1.40;;;;;;;5.65;94.65;100238.94;4922777;29;20027;-94
2023/12/22 03:22:52;;;;;;;9.88;1.73;;;;;;;5.65;94.60;100248.41;4926903;29;20036;-94
2023/12/22 03:25:25;;;;;;;11.20;1.73;;;;;;;5.64;94.82;100246.72;4925477;29;20028;-93
2023/12/22 03:27:50;;;;;;;13.53;1.77;;;;;;;5.67;95.15;100269.88;4924756;29;20495;-93
2023/12/22 03:30:16;;;;;;;8.05;1.25;;;;;;;5.59;96.15;100265.69;4934494;29;20262;-92
2023/12/22 03:32:41;;;;;;;7.65;1.33;;;;;;;5.58;95.60;100276.91;4940147;29;20079;-93
2023/12/22 03:35:07;;;;;;;15.43;1.90;;;;;;;5.61;96.02;100265.66;4925232;29;20046;-92
2023/12/22 03:37:32;;;;;;;10.13;1.73;;;;;;;5.63;96.28;100269.06;4923460;29;20489;-93
2023/12/22 03:39:57;;;;;;;8.07;1.40;;;;;;;5.60;96.84;100275.16;4922940;29;20114;-94
2023/12/22 03:42:23;;;;;;;10.15;1.45;;;;;;;5.59;96.70;100270.84;4928601;29;20419;-93
2023/12/22 03:44:48;;;;;;;11.20;1.80;;;;;;;5.57;97.23;100270.03;4930706;29;20042;-94
2023/12/22 03:47:15;;;;;;;10.90;1.30;;;;;;;5.56;97.07;100270.91;4936019;29;20095;-93
2023/12/22 03:49:40;;;;;;;8.30;1.60;;;;;;;5.60;96.54;100288.06;4928198;29;20024;-94
2023/12/22 03:52:06;;;;;;;8.25;1.60;;;;;;;5.65;96.28;100269.03;4919802;29;20127;-93
2023/12/22 03:54:31;;;;;;;8.77;1.30;;;;;;;5.64;96.91;100277.69;4938602;29;20395;-93
2023/12/22 03:56:56;;;;;;;7.85;1.20;;;;;;;5.74;95.50;100271.50;4926294;29;20171;-93
2023/12/22 03:59:22;;;;;;;9.00;1.50;;;;;;;5.75;96.12;100274.03;4923167;29;20031;-93
2023/12/22 04:01:52;;;;;;;10.18;1.67;;;;;;;5.78;95.71;100263.69;4922601;29;20500;-92
2023/12/22 04:04:18;;;;;;;13.57;1.60;;;;;;;5.81;95.01;100273.09;4942028;29;20020;-95
2023/12/22 04:06:43;;;;;;;7.93;1.30;;;;;;;5.83;95.61;100299.75;4953924;28;20423;-92
2023/12/22 04:09:09;;;;;;;5.65;1.02;;;;;;;5.84;94.97;100280.81;4961122;28;20055;-93
2023/12/22 04:11:36;;;;;;;5.63;1.13;;;;;;;5.88;94.59;100285.06;4943468;29;20455;-93
2023/12/22 04:14:01;;;;;;;12.23;1.42;;;;;;;5.98;93.58;100295.25;4945631;29;20051;-91
2023/12/22 04:16:26;;;;;;;12.80;1.60;;;;;;;6.02;92.73;100279.72;4961646;28;20117;-94
2023/12/22 04:18:52;;;;;;;7.93;1.40;;;;;;;6.12;91.56;100292.47;4958443;28;20035;-95
2023/12/22 04:21:25;;;;;;;6.57;1.10;;;;;;;6.17;91.45;100288.91;4940483;29;20031;-95
2023/12/22 04:23:50;;;;;;;4.18;1.05;;;;;;;6.23;91.67;100296.59;4940571;28;20031;-94
2023/12/22 04:26:16;;;;;;;10.93;1.33;;;;;;;6.26;90.33;100297.41;4943119;28;20032;-92
2023/12/22 04:28:41;;;;;;;7.63;1.63;;;;;;;6.28;90.08;100303.41;4954349;28;20063;-94
2023/12/22 04:31:06;;;;;;;9.88;1.23;;;;;;;6.30;89.48;100312.00;4942288;28;20117;-92
2023/12/22 04:33:32;;;;;;;7.20;1.23;;;;;;;6.26;89.54;100318.91;4944333;29;20042;-92
2023/12/22 04:36:00;;;;;;;9.23;1.63;;;;;;;6.28;88.73;100322.31;4953018;28;20023;-94
2023/12/22 04:38:25;;;;;;;11.38;1.30;;;;;;;6.32;88.70;100320.56;4956811;28;20031;-93
2023/12/22 04:40:50;;;;;;;8.93;1.30;;;;;;;6.37;86.11;100318.75;4940088;28;20023;-93
2023/12/22 04:43:16;;;;;;;7.70;1.30;;;;;;;6.37;87.36;100322.19;4957088;28;20031;-93
2023/12/22 04:45:41;;;;;;;5.68;1.00;;;;;;;6.33;86.88;100306.75;4941504;29;20484;-95
2023/12/22 04:48:07;;;;;;;8.32;1.60;;;;;;;6.35;87.47;100317.91;4958117;28;20110;-94
2023/12/22 04:50:32;;;;;;;11.70;1.30;;;;;;;6.34;87.17;100331.69;4941974;29;20042;-90
2023/12/22 04:52:57;;;;;;;6.25;1.17;;;;;;;6.34;86.26;100321.38;4959420;28;20118;-94
2023/12/22 04:55:23;;;;;;;9.23;1.48;;;;;;;6.35;86.82;100313.59;4936105;29;20162;-94
2023/12/22 04:57:48;;;;;;;11.75;1.63;;;;;;;6.43;84.59;100321.22;4941633;28;20023;-92
2023/12/22 05:00:14;;;;;;;11.35;1.35;;;;;;;6.40;85.88;100321.28;4960651;28;20027;-93
2023/12/22 05:02:41;;;;;;;5.70;1.23;;;;;;;6.41;86.11;100332.44;4952653;28;20054;-94
2023/12/22 05:05:08;;;;;;;6.97;1.27;;;;;;;6.41;86.05;100329.88;4944488;28;20030;-92
2023/12/22 05:07:33;;;;;;;6.68;0.95;;;;;;;6.45;85.64;100332.41;4941767;29;20471;-92
2023/12/22 05:09:59;;;;;;;7.18;1.35;;;;;;;6.43;86.40;100334.16;4947137;29;20027;-93
2023/12/22 05:12:24;;;;;;;6.63;1.10;;;;;;;6.44;86.59;100330.69;4927170;29;20060;-94
2023/12/22 05:14:50;;;;;;;9.07;1.40;;;;;;;6.44;86.61;100332.41;4942818;29;20558;-94
2023/12/22 05:17:15;;;;;;;6.47;1.35;;;;;;;6.47;86.80;100337.53;4925552;29;20102;-92
2023/12/22 05:19:40;;;;;;;8.35;1.20;;;;;;;6.48;85.97;100345.28;4947971;29;20371;-93
2023/12/22 05:22:06;;;;;;;6.82;1.05;;;;;;;6.51;86.54;100323.69;4948031;29;20031;-93
2023/12/22 05:24:31;;;;;;;11.23;1.20;;;;;;;6.50;86.80;100340.91;4946073;29;20106;-92
2023/12/22 05:26:56;;;;;;;6.63;0.95;;;;;;;6.52;87.48;100344.31;4947041;29;20023;-93
2023/12/22 05:29:22;;;;;;;6.88;1.30;;;;;;;6.51;86.96;100344.34;4939354;29;20103;-94
2023/12/22 05:31:47;;;;;;;5.13;0.93;;;;;;;6.52;87.21;100336.56;4925942;29;20051;-93
2023/12/22 05:34:13;;;;;;;7.00;1.33;;;;;;;6.53;87.27;100343.44;4933793;29;20063;-94
2023/12/22 05:36:41;;;;;;;7.80;1.17;;;;;;;6.56;88.27;100334.81;4930024;29;20534;-94
2023/12/22 05:39:09;;;;;;;7.38;1.10;;;;;;;6.55;88.95;100315.00;4937959;29;20027;-92
2023/12/22 05:41:37;;;;;;;7.68;1.20;;;;;;;6.61;91.26;100325.22;4929586;29;20043;-94
2023/12/22 05:44:02;;;;;;;8.73;1.40;;;;;;;6.60;91.64;100309.75;4931677;29;20474;-93
2023/12/22 05:46:27;;;;;;;8.63;1.50;;;;;;;6.46;95.62;100321.19;4937886;28;20090;-94
2023/12/22 05:48:53;;;;;;;7.43;1.25;;;;;;;6.36;94.97;100324.78;4940085;29;20490;-94
2023/12/22 05:51:18;;;;;;;4.68;1.00;;;;;;;6.29;93.97;100324.03;4945326;29;20031;-94
2023/12/22 05:53:43;;;;;;;6.78;1.33;;;;;;;6.29;96.29;100310.28;4934157;29;20440;-93
2023/12/22 05:56:21;;;;;;;6.78;1.10;;;;;;;6.22;97.76;100302.63;4924634;29;20038;-92
2023/12/22 05:58:50;;;;;;;8.20;1.20;;;;;;;6.17;97.18;100299.25;4923369;29;20054;-93
2023/12/22 06:01:18;;;;;;;5.72;0.82;;;;;;;6.16;99.32;100314.78;4934378;29;20023;-94
2023/12/22 06:03:44;;;;;;;6.43;1.20;;;;;;;6.12;100.00;100306.25;4934620;29;20038;-92
2023/12/22 06:06:09;;;;;;;6.90;1.20;;;;;;;6.09;100.00;100311.44;4928816;29;20125;-92
2023/12/22 06:08:35;;;;;;;8.80;1.40;;;;;;;6.09;100.00;100306.28;4939796;29;20443;-92
2023/12/22 06:11:00;;;;;;;7.22;1.63;;;;;;;6.11;100.00;100304.53;4943081;29;20030;-93
2023/12/22 06:13:25;;;;;;;11.38;1.65;;;;;;;6.12;100.00;100283.00;4941414;29;20035;-93
2023/12/22 06:15:51;;;;;;;11.45;1.92;;;;;;;6.16;100.00;100287.22;4930165;29;20030;-93
2023/12/22 06:18:16;;;;;;;13.25;2.45;;;;;;;6.21;100.00;100293.16;4910776;29;20528;-95
2023/12/22 06:20:41;;;;;;;11.63;1.58;;;;;;;6.29;100.00;100297.38;4915114;29;20588;-93
2023/12/22 06:23:07;;;;;;;14.57;1.98;;;;;;;6.33;100.00;100302.44;4926003;29;20067;-92
2023/12/22 06:25:32;;;;;;;10.73;2.22;;;;;;;6.34;100.00;100290.38;4942641;29;20031;-93
2023/12/22 06:27:57;;;;;;;12.18;1.73;;;;;;;6.35;100.00;100294.66;4932438;29;20029;-92
2023/12/22 06:30:24;;;;;;;11.05;1.73;;;;;;;6.37;100.00;100300.66;4923821;29;20036;-89
2023/12/22 06:32:49;;;;;;;10.52;2.08;;;;;;;6.34;100.00;100314.50;4937350;29;20028;-92
2023/12/22 06:35:15;;;;;;;11.18;1.90;;;;;;;6.33;100.00;100309.31;4924835;29;20032;-91
2023/12/22 06:37:40;;;;;;;16.25;2.28;;;;;;;6.30;100.00;100324.91;4928858;29;20122;-91
2023/12/22 06:40:06;;;;;;;12.85;2.35;;;;;;;6.27;100.00;100332.69;4944423;29;20641;-91
2023/12/22 06:42:31;;;;;;;10.98;2.10;;;;;;;6.26;100.00;100346.50;4921653;29;20497;-94
2023/12/22 06:44:57;;;;;;;9.68;2.22;;;;;;;6.21;100.00;100344.00;4927849;29;20028;-95
2023/12/22 06:47:22;;;;;;;16.52;2.55;;;;;;;6.17;100.00;100339.75;4930285;28;20429;-93
2023/12/22 06:49:47;;;;;;;9.35;2.40;;;;;;;6.15;100.00;100334.56;4926678;29;20526;-93
2023/12/22 06:52:13;;;;;;;12.48;1.85;;;;;;;6.13;100.00;100320.88;4925195;29;20028;-91
2023/12/22 06:54:38;;;;;;;13.98;2.30;;;;;;;6.16;100.00;100325.13;4923232;29;20028;-93
2023/12/22 06:57:04;;;;;;;13.48;2.22;;;;;;;6.19;100.00;100312.16;4940265;28;20027;-93
2023/12/22 06:59:29;;;;;;;15.95;2.75;;;;;;;6.21;100.00;100311.25;4933818;29;20023;-94
2023/12/22 07:01:55;;;;;;;13.27;2.08;;;;;;;6.22;100.00;100312.13;4929555;29;20028;-94
2023/12/22 07:04:20;;;;;;;11.93;2.10;;;;;;;6.23;100.00;100306.91;4941051;29;20126;-93
2023/12/22 07:06:47;;;;;;;16.77;2.55;;;;;;;6.24;100.00;100302.59;4953600;28;20054;-95
2023/12/22 07:09:16;;;;;;;12.50;2.67;;;;;;;6.30;100.00;100306.81;4934617;29;20031;-94
2023/12/22 07:11:46;;;;;;;16.88;2.55;;;;;;;6.32;100.00;100292.16;4920488;29;20040;-94
2023/12/22 07:14:11;;;;;;;20.55;2.80;;;;;;;6.31;100.00;100287.84;4927012;29;20387;-93
2023/12/22 07:16:37;;;;;;;18.27;2.40;;;;;;;6.31;100.00;100291.28;4948683;29;20035;-93
2023/12/22 07:19:03;;;;;;;16.60;2.67;;;;;;;6.29;100.00;100289.63;4941151;29;20038;-93
2023/12/22 07:21:29;;;;;;;16.52;3.05;;;;;;;6.34;100.00;100295.53;4946108;29;20031;-95
2023/12/22 07:23:54;;;;;;;17.10;2.53;;;;;;;6.38;100.00;100310.09;4955280;28;20090;-94
2023/12/22 07:26:21;;;;;;;18.88;3.05;;;;;;;6.39;100.00;100309.22;4945248;29;20142;-93
2023/12/22 07:28:47;;;;;;;17.40;2.50;;;;;;;6.45;100.00;100293.63;4953494;28;20027;-93
2023/12/22 07:31:13;;;;;;;19.35;2.88;;;;;;;6.46;100.00;100300.50;4955432;29;20039;-93
2023/12/22 07:33:40;;;;;;;26.02;3.30;;;;;;;6.48;100.00;100298.75;4954202;29;20027;-93
2023/12/22 07:36:06;;;;;;;14.88;2.50;;;;;;;6.49;100.00;100304.75;4943826;28;20035;-94
2023/12/22 07:38:31;;;;;;;18.48;2.88;;;;;;;6.51;100.00;100301.25;4953446;29;20035;-92
2023/12/22 07:40:57;;;;;;;20.25;2.90;;;;;;;6.52;100.00;100307.31;4954373;28;20743;-94
2023/12/22 07:43:22;;;;;;;19.83;2.88;;;;;;;6.55;100.00;100306.38;4954245;28;20039;-94
2023/12/22 07:45:50;;;;;;;19.38;3.20;;;;;;;6.57;100.00;100317.53;4942900;28;20027;-94
2023/12/22 07:48:15;;;;;;;21.23;3.50;;;;;;;6.64;100.00;100308.81;4945932;29;20030;-93
2023/12/22 07:50:42;;;;;;;16.05;2.55;;;;;;;6.66;100.00;100307.06;4953296;29;20035;-94
2023/12/22 07:53:08;;;;;;;16.17;3.00;;;;;;;6.65;100.00;100284.69;4942915;29;20043;-93
2023/12/22 07:55:34;;;;;;;17.38;2.92;;;;;;;6.75;100.00;100301.72;4941120;29;20034;-94
2023/12/22 07:57:59;;;;;;;18.85;2.80;;;;;;;6.73;100.00;100298.28;4957179;28;20383;-93
2023/12/22 08:00:24;;;;;;;19.75;3.03;;;;;;;6.76;100.00;100297.38;4954657;29;20113;-93
2023/12/22 08:02:50;;;;;;;15.05;2.70;;;;;;;6.79;100.00;100295.59;4939464;29;20032;-95
2023/12/22 08:05:15;;;;;;;16.00;3.10;;;;;;;6.78;100.00;100288.72;4953607;28;20047;-95
2023/12/22 08:07:41;;;;;;;16.83;2.30;;;;;;;6.80;100.00;100294.72;4954347;28;20106;-92
2023/12/22 08:10:06;;;;;;;14.00;2.20;;;;;;;6.81;100.00;100291.25;4953161;28;20167;-94
2023/12/22 08:12:32;;;;;;;13.35;2.08;;;;;;;6.82;100.00;100297.28;4953870;29;20082;-92
2023/12/22 08:14:58;;;;;;;19.60;2.67;;;;;;;6.87;100.00;100302.34;4952850;28;20031;-94
2023/12/22 08:17:24;;;;;;;13.73;2.15;;;;;;;6.90;100.00;100294.53;4962878;28;20035;-95
2023/12/22 08:19:49;;;;;;;13.45;1.98;;;;;;;6.90;100.00;100295.41;4943567;29;20058;-93
2023/12/22 08:22:17;;;;;;;16.58;2.47;;;;;;;6.93;100.00;100294.47;4954093;29;20035;-92
2023/12/22 08:24:42;;;;;;;15.18;2.75;;;;;;;6.97;100.00;100306.47;4941637;28;20038;-94
2023/12/22 08:27:08;;;;;;;17.08;2.65;;;;;;;7.03;100.00;100296.00;4941121;29;20034;-94
2023/12/22 08:29:34;;;;;;;22.65;2.45;;;;;;;7.08;100.00;100301.94;4943229;29;20035;-93
2023/12/22 08:32:01;;;;;;;12.40;2.28;;;;;;;7.08;100.00;100303.69;4952852;28;20038;-93
2023/12/22 08:34:29;;;;;;;15.40;2.80;;;;;;;7.09;100.00;100311.41;4953162;29;20039;-94
2023/12/22 08:36:55;;;;;;;14.25;2.50;;;;;;;7.12;100.00;100293.25;4953278;28;20042;-91
2023/12/22 08:39:20;;;;;;;19.60;2.88;;;;;;;7.13;100.00;100292.34;4963784;29;20023;-94
2023/12/22 08:41:46;;;;;;;13.00;2.28;;;;;;;7.18;100.00;100286.22;4960698;28;20087;-95
2023/12/22 08:44:14;;;;;;;15.18;2.15;;;;;;;7.18;100.00;100281.91;4937780;29;20034;-95
2023/12/22 08:46:40;;;;;;;13.52;3.42;;;;;;;7.20;100.00;100290.50;4942914;28;20027;-95
2023/12/22 08:49:05;;;;;;;13.38;2.20;;;;;;;7.22;100.00;100290.44;4953898;29;20039;-95
2023/12/22 08:51:30;;;;;;;11.30;2.15;;;;;;;7.23;100.00;100271.47;4946888;29;20038;-93
2023/12/22 08:53:56;;;;;;;11.63;1.60;;;;;;;7.22;100.00;100260.28;4953887;29;20042;-93
2023/12/22 08:56:25;;;;;;;8.63;1.60;;;;;;;7.27;100.00;100262.75;4942090;28;20038;-96
2023/12/22 08:58:55;;;;;;;10.85;1.80;;;;;;;7.28;100.00;100272.22;4953309;29;20122;-93
2023/12/22 09:01:21;;;;;;;10.77;1.67;;;;;;;7.29;100.00;100267.00;4942672;29;20050;-94
2023/12/22 09:03:47;;;;;;;12.48;1.70;;;;;;;7.32;100.00;100260.94;4939814;29;20027;-93
2023/12/22 09:06:21;;;;;;;9.38;1.50;;;;;;;7.36;100.00;100272.06;4941353;29;20110;-93
2023/12/22 09:08:55;;;;;;;7.25;1.52;;;;;;;7.41;100.00;100275.41;4952657;29;20051;-93
2023/12/22 09:11:21;;;;;;;12.95;1.60;;;;;;;7.42;100.00;100275.34;4943176;29;20031;-95
2023/12/22 09:13:46;;;;;;;8.65;1.70;;;;;;;7.46;100.00;100288.22;4934913;29;20719;-94
2023/12/22 09:16:15;;;;;;;8.25;2.00;;;;;;;7.51;100.00;100273.47;4939019;28;20110;-93
2023/12/22 09:18:42;;;;;;;6.43;1.10;;;;;;;7.52;100.00;100270.84;4953147;28;20023;-95
2023/12/22 09:21:07;;;;;;;7.43;1.42;;;;;;;7.55;100.00;100293.19;4940120;29;20092;-94
2023/12/22 09:23:32;;;;;;;7.18;1.20;;;;;;;7.57;100.00;100275.91;4941347;29;20031;-93
2023/12/22 09:25:58;;;;;;;6.18;1.20;;;;;;;7.56;100.00;100269.88;4945387;29;20038;-93
2023/12/22 09:28:23;;;;;;;7.22;1.20;;;;;;;7.59;100.00;100266.38;4935689;29;20474;-93
2023/12/22 09:30:49;;;;;;;4.57;1.20;;;;;;;7.60;100.00;100262.88;4961807;28;20106;-94
2023/12/22 09:33:15;;;;;;;4.80;0.90;;;;;;;7.64;100.00;100272.28;4954282;29;20548;-95
2023/12/22 09:35:41;;;;;;;5.25;1.08;;;;;;;7.63;100.00;100270.59;4941968;29;20062;-93
2023/12/22 09:38:09;;;;;;;7.15;1.10;;;;;;;7.62;100.00;100263.72;4954914;29;20483;-93
2023/12/22 09:40:42;;;;;;;4.97;0.93;;;;;;;7.57;100.00;100244.84;4957467;28;20027;-94
2023/12/22 09:43:55;;;;;;;5.93;1.20;;;;;;;7.54;100.00;100250.06;4963498;28;20410;-96
2023/12/22 09:46:30;;;;;;;9.35;1.27;;;;;;;7.56;100.00;100244.00;4940795;29;20274;-96
2023/12/22 09:48:56;;;;;;;5.53;0.85;;;;;;;7.55;100.00;100256.97;4944223;29;20034;-96
2023/12/22 09:51:31;;;;;;;4.95;0.73;;;;;;;7.61;100.00;100254.25;4937061;29;20395;-95
2023/12/22 09:54:00;;;;;;;3.40;1.02;;;;;;;7.65;100.00;100263.66;4952114;28;20081;-92
2023/12/22 09:56:26;;;;;;;5.05;1.10;;;;;;;7.65;100.00;100250.69;4939947;29;20463;-95
2023/12/22 09:58:54;;;;;;;6.43;1.10;;;;;;;7.68;100.00;100261.00;4939140;29;20023;-94
2023/12/22 10:01:22;;;;;;;6.60;1.00;;;;;;;7.73;100.00;100248.75;4935905;29;20050;-96
2023/12/22 10:03:48;;;;;;;4.82;1.13;;;;;;;7.77;100.00;100251.28;4959068;28;20027;-93
2023/12/22 10:06:14;;;;;;;4.65;1.10;;;;;;;7.87;100.00;100265.72;4951724;28;20058;-93
2023/12/22 10:08:39;;;;;;;5.45;1.00;;;;;;;7.92;100.00;100260.44;4952873;29;20023;-92
2023/12/22 10:11:08;;;;;;;3.95;0.82;;;;;;;7.99;100.00;100244.72;4952402;28;20480;-95
2023/12/22 10:13:36;;;;;;;2.97;1.00;;;;;;;8.03;100.00;100251.50;4940402;29;20032;-94
2023/12/22 10:16:04;;;;;;;5.15;1.05;;;;;;;8.05;100.00;100260.09;4940166;29;20035;-93
2023/12/22 10:18:29;;;;;;;5.20;1.35;;;;;;;8.11;100.00;100290.19;4929030;29;20046;-91
2023/12/22 10:20:55;;;;;;;4.47;1.10;;;;;;;8.13;100.00;100256.47;4951101;29;20035;-94
2023/12/22 10:23:20;;;;;;;5.53;1.00;;;;;;;8.24;100.00;100251.00;4951642;28;20083;-95
2023/12/22 10:25:47;;;;;;;7.00;1.17;;;;;;;8.26;100.00;100273.41;4958651;28;20106;-93
2023/12/22 10:28:14;;;;;;;5.53;1.10;;;;;;;8.28;100.00;100258.66;4957972;28;20027;-95
2023/12/22 10:30:40;;;;;;;4.72;0.98;;;;;;;8.30;100.00;100264.66;4951618;29;20148;-96
2023/12/22 10:33:06;;;;;;;5.93;0.90;;;;;;;8.37;100.00;100257.56;4953162;28;20031;-93
2023/12/22 10:35:32;;;;;;;4.32;1.00;;;;;;;8.38;100.00;100268.78;4938025;29;20091;-94
2023/12/22 10:37:59;;;;;;;4.30;1.00;;;;;;;8.43;100.00;100266.94;4954034;29;20027;-92
2023/12/22 10:40:26;;;;;;;2.80;0.80;;;;;;;8.52;100.00;100247.72;4954287;29;20031;-92
2023/12/22 10:42:52;;;;;;;3.35;0.80;;;;;;;8.49;100.00;100243.47;4959334;28;20031;-93
2023/12/22 10:45:20;;;;;;;5.13;0.80;;;;;;;8.52;100.00;100245.13;4944578;29;20057;-95
2023/12/22 10:47:50;;;;;;;7.45;1.00;;;;;;;8.50;100.00;100243.44;4953660;28;20475;-93
2023/12/22 10:50:18;;;;;;;4.38;0.80;;;;;;;8.55;100.00;100258.84;4954284;28;20122;-91
2023/12/22 10:52:49;;;;;;;3.60;0.90;;;;;;;8.58;100.00;100263.97;4939027;29;20037;-92
2023/12/22 10:55:15;;;;;;;3.90;1.00;;;;;;;8.62;100.00;100282.91;4952313;28;20119;-91
2023/12/22 10:57:47;;;;;;;4.35;0.88;;;;;;;8.64;100.00;100263.81;4950057;28;20034;-93
2023/12/22 11:00:16;;;;;;;5.30;1.00;;;;;;;8.65;100.00;100252.53;4945050;29;20172;-93
2023/12/22 11:02:42;;;;;;;4.35;0.95;;;;;;;8.64;100.00;100256.03;4953559;28;20459;-90
2023/12/22 11:05:12;;;;;;;5.28;1.13;;;;;;;8.67;100.00;100254.25;4952973;28;20102;-92
2023/12/22 11:07:38;;;;;;;4.28;1.00;;;;;;;8.70;100.00;100264.53;4952980;28;20101;-93
2023/12/22 11:10:06;;;;;;;4.25;1.27;;;;;;;8.71;100.00;100240.31;4952784;29;20543;-90
2023/12/22 11:12:38;;;;;;;5.05;1.20;;;;;;;8.71;100.00;100271.44;4940007;29;20031;-91
2023/12/22 11:15:07;;;;;;;4.65;1.02;;;;;;;8.71;100.00;100242.91;4953963;28;20097;-91
2023/12/22 11:17:36;;;;;;;4.45;1.08;;;;;;;8.74;100.00;100243.66;4952950;28;20035;-93
2023/12/22 11:20:03;;;;;;;5.22;1.00;;;;;;;8.75;100.00;100239.31;4953804;28;20034;-88
2023/12/22 11:22:28;;;;;;;5.60;1.20;;;;;;;8.79;100.00;100238.34;4953190;29;20041;-88
2023/12/22 11:24:56;;;;;;;5.15;1.23;;;;;;;8.81;100.00;100247.75;4958870;28;20031;-92
2023/12/22 11:27:25;;;;;;;6.53;1.27;;;;;;;8.83;100.00;100234.78;4956441;29;20039;-92
2023/12/22 11:29:51;;;;;;;6.38;1.35;;;;;;;8.85;100.00;100250.28;4934919;29;20038;-91
2023/12/22 11:32:18;;;;;;;5.38;1.20;;;;;;;8.88;100.00;100248.44;4954678;28;20031;-92
2023/12/22 11:34:44;;;;;;;4.80;1.20;;;;;;;8.85;100.00;100243.38;4953178;29;20034;-93
2023/12/22 11:37:42;;;;;;;3.85;1.15;;;;;;;8.89;100.00;100241.53;4955920;29;20031;-94
2023/12/22 11:40:07;;;;;;;5.18;0.80;;;;;;;8.90;100.00;100244.06;4955987;28;20027;-92
2023/12/22 11:42:43;;;;;;;4.38;1.10;;;;;;;8.93;100.00;100249.16;4939346;29;20040;-90
2023/12/22 11:45:16;;;;;;;8.80;1.40;;;;;;;8.91;100.00;100237.97;4953283;28;20139;-92
2023/12/22 11:47:46;;;;;;;5.15;1.00;;;;;;;8.89;100.00;100224.19;4952155;29;20382;-92
2023/12/22 11:50:12;;;;;;;6.25;1.15;;;;;;;8.93;100.00;100230.19;4938518;29;22068;-91
2023/12/22 11:52:39;;;;;;;6.78;1.10;;;;;;;8.94;100.00;100227.53;4953616;28;20031;-92
2023/12/22 11:55:04;;;;;;;3.10;0.85;;;;;;;8.95;100.00;100244.78;4941824;28;20027;-92
2023/12/22 11:57:37;;;;;;;5.07;0.90;;;;;;;8.99;100.00;100216.16;4954570;28;20095;-93